createdAt,value
2023-01-06T00:01:17.647Z,100930.28
2023-01-06T00:03:49.220Z,100938.72
2023-01-06T00:06:16.284Z,100938.63
2023-01-06T00:08:43.356Z,100929.16
2023-01-06T00:11:13.002Z,100944.66
2023-01-06T00:13:40.750Z,100943.59
2023-01-06T00:16:10.812Z,100948.66
2023-01-06T00:18:38.507Z,100942.75
2023-01-06T00:21:06.809Z,100948.75
2023-01-06T00:23:34.983Z,100959.22
2023-01-06T00:26:03.568Z,100943.59
2023-01-06T00:28:30.796Z,100951.34
2023-01-06T00:30:59.419Z,100960.97
2023-01-06T00:33:26.917Z,100958.25
2023-01-06T00:35:59.003Z,100961.63
2023-01-06T00:38:26.475Z,100960.66
2023-01-06T00:40:53.616Z,100956.38
2023-01-06T00:43:20.743Z,100957.94
2023-01-06T00:45:48.230Z,100954.53
2023-01-06T00:48:15.573Z,100965.91
2023-01-06T00:50:43.081Z,100964.31
2023-01-06T00:53:10.508Z,100969.56
2023-01-06T00:55:37.653Z,100982.53
2023-01-06T00:58:04.787Z,100987.94
2023-01-06T01:00:32.264Z,100981.81
2023-01-06T01:03:00.005Z,100979.00
2023-01-06T01:05:27.186Z,100981.75
2023-01-06T01:07:54.684Z,100995.50
2023-01-06T01:10:21.852Z,100997.97
2023-01-06T01:12:49.016Z,100999.75
2023-01-06T01:15:16.501Z,101016.22
2023-01-06T01:17:43.670Z,101013.69
2023-01-06T01:20:11.065Z,101024.97
2023-01-06T01:22:38.565Z,101030.13
2023-01-06T01:25:06.397Z,101028.47
2023-01-06T01:27:33.560Z,101020.69
2023-01-06T01:30:00.984Z,101027.63
2023-01-06T01:32:28.382Z,101025.88
2023-01-06T01:34:55.540Z,101017.25
2023-01-06T01:37:23.034Z,101019.87
2023-01-06T01:39:50.235Z,101017.28
2023-01-06T01:42:19.760Z,101021.69
2023-01-06T01:44:57.516Z,101007.13
2023-01-06T01:47:35.492Z,101015.66
2023-01-06T01:50:29.944Z,101012.25
2023-01-06T01:53:05.481Z,101024.44
2023-01-06T01:55:33.073Z,101020.00
2023-01-06T01:58:22.363Z,101022.78
2023-01-06T02:00:51.226Z,101027.94
2023-01-06T02:03:20.991Z,101031.44
2023-01-06T02:05:52.403Z,101031.44
2023-01-06T02:08:50.598Z,101046.25
2023-01-06T02:11:17.832Z,101042.72
2023-01-06T02:13:52.003Z,101059.16
2023-01-06T02:16:33.990Z,101058.31
2023-01-06T02:19:23.214Z,101053.91
2023-01-06T02:21:59.887Z,101055.78
2023-01-06T02:24:36.547Z,101050.72
2023-01-06T02:27:19.807Z,101047.44
2023-01-06T02:30:20.832Z,101044.88
2023-01-06T02:33:08.730Z,101050.06
2023-01-06T02:36:09.466Z,101043.94
2023-01-06T02:39:14.996Z,101049.97
2023-01-06T02:41:46.584Z,101042.94
2023-01-06T02:44:22.875Z,101049.75
2023-01-06T02:47:11.879Z,101058.34
2023-01-06T02:49:46.770Z,101064.56
2023-01-06T02:52:33.105Z,101059.41
2023-01-06T02:55:05.527Z,101067.84
2023-01-06T02:57:41.706Z,101073.75
2023-01-06T03:00:21.046Z,101073.63
2023-01-06T03:02:56.115Z,101073.75
2023-01-06T03:05:24.505Z,101068.56
2023-01-06T03:07:53.662Z,101066.88
2023-01-06T03:10:22.443Z,101065.19
2023-01-06T03:12:52.635Z,101067.87
2023-01-06T03:15:21.079Z,101070.44
2023-01-06T03:17:48.614Z,101061.91
2023-01-06T03:20:15.784Z,101064.56
2023-01-06T03:22:43.679Z,101072.53
2023-01-06T03:25:12.103Z,101070.09
2023-01-06T03:27:41.067Z,101070.03
2023-01-06T03:30:10.802Z,101057.22
2023-01-06T03:32:58.613Z,101060.66
2023-01-06T03:35:51.886Z,101071.13
2023-01-06T03:38:53.420Z,101065.91
2023-01-06T03:41:58.739Z,101077.87
2023-01-06T03:45:25.360Z,101089.06
2023-01-06T03:48:10.592Z,101088.06
2023-01-06T03:51:10.295Z,101083.63
2023-01-06T03:53:55.216Z,101094.81
2023-01-06T03:56:29.717Z,101093.75
2023-01-06T03:59:01.109Z,101095.25
2023-01-06T04:01:28.886Z,101093.63
2023-01-06T04:03:56.968Z,101094.22
2023-01-06T04:06:25.663Z,101098.66
2023-01-06T04:08:53.119Z,101100.63
2023-01-06T04:11:39.514Z,101099.56
2023-01-06T04:14:08.639Z,101109.38
2023-01-06T04:16:36.264Z,101100.84
2023-01-06T04:19:03.851Z,101097.56
2023-01-06T04:21:31.057Z,101091.56
2023-01-06T04:23:58.543Z,101089.72
2023-01-06T04:26:25.680Z,101085.38
2023-01-06T04:28:52.758Z,101090.53
2023-01-06T04:31:20.301Z,101090.66
2023-01-06T04:33:48.221Z,101096.56
2023-01-06T04:36:16.016Z,101091.94
2023-01-06T04:38:43.797Z,101103.81
2023-01-06T04:41:10.961Z,101103.69
2023-01-06T04:43:38.110Z,101112.44
2023-01-06T04:46:05.801Z,101119.53
2023-01-06T04:48:32.971Z,101131.56
2023-01-06T04:51:05.701Z,101131.47
2023-01-06T04:53:35.052Z,101135.06
2023-01-06T04:56:06.632Z,101141.16
2023-01-06T04:58:34.303Z,101148.19
2023-01-06T05:01:07.087Z,101149.88
2023-01-06T05:03:37.796Z,101149.03
2023-01-06T05:06:10.467Z,101147.53
2023-01-06T05:08:39.323Z,101143.84
2023-01-06T05:11:12.695Z,101148.16
2023-01-06T05:13:40.501Z,101146.63
2023-01-06T05:16:09.955Z,101141.38
2023-01-06T05:18:37.364Z,101142.28
2023-01-06T05:21:05.151Z,101139.97
2023-01-06T05:23:32.366Z,101136.75
2023-01-06T05:25:59.711Z,101145.34
2023-01-06T05:28:29.340Z,101147.94
2023-01-06T05:31:04.209Z,101159.13
2023-01-06T05:33:32.817Z,101173.97
2023-01-06T05:36:06.083Z,101186.00
2023-01-06T05:38:34.412Z,101191.81
2023-01-06T05:41:02.139Z,101191.09
2023-01-06T05:43:29.444Z,101197.31
2023-01-06T05:45:56.867Z,101199.97
2023-01-06T05:48:25.341Z,101191.25
2023-01-06T05:50:52.448Z,101206.09
2023-01-06T05:53:19.811Z,101217.97
2023-01-06T05:55:46.852Z,101206.03
2023-01-06T05:58:13.911Z,101220.69
2023-01-06T06:00:41.257Z,101217.19
2023-01-06T06:03:08.628Z,101217.94
2023-01-06T06:05:35.740Z,101220.50
2023-01-06T06:08:02.961Z,101218.78
2023-01-06T06:10:30.303Z,101230.19
2023-01-06T06:12:57.391Z,101238.66
2023-01-06T06:15:24.479Z,101228.28
2023-01-06T06:17:51.822Z,101230.09
2023-01-06T06:20:18.876Z,101233.72
2023-01-06T06:22:45.932Z,101240.72
2023-01-06T06:25:13.290Z,101240.78
2023-01-06T06:27:40.344Z,101241.91
2023-01-06T06:30:08.024Z,101242.22
2023-01-06T06:32:35.461Z,101249.19
2023-01-06T06:35:02.515Z,101236.97
2023-01-06T06:37:29.598Z,101243.06
2023-01-06T06:39:56.972Z,101237.13
2023-01-06T06:42:24.062Z,101234.84
2023-01-06T06:44:52.227Z,101237.31
2023-01-06T06:47:19.779Z,101244.88
2023-01-06T06:49:46.899Z,101248.28
2023-01-06T06:52:13.983Z,101246.59
2023-01-06T06:54:41.364Z,101250.25
2023-01-06T06:57:08.457Z,101252.75
2023-01-06T06:59:35.553Z,101252.84
2023-01-06T07:02:03.115Z,101254.56
2023-01-06T07:04:30.346Z,101267.50
2023-01-06T07:06:57.564Z,101271.66
2023-01-06T07:09:25.057Z,101270.72
2023-01-06T07:11:52.189Z,101274.06
2023-01-06T07:14:19.245Z,101278.97
2023-01-06T07:16:46.612Z,101277.22
2023-01-06T07:19:13.659Z,101283.25
2023-01-06T07:21:40.789Z,101288.41
2023-01-06T07:24:08.246Z,101291.97
2023-01-06T07:26:35.413Z,101293.00
2023-01-06T07:29:02.564Z,101298.00
2023-01-06T07:31:30.030Z,101287.66
2023-01-06T07:33:57.238Z,101285.84
2023-01-06T07:36:24.298Z,101272.91
2023-01-06T07:38:51.686Z,101285.72
2023-01-06T07:41:18.836Z,101274.37
2023-01-06T07:43:45.894Z,101281.19
2023-01-06T07:46:13.295Z,101281.03
2023-01-06T07:48:40.349Z,101277.44
2023-01-06T07:51:07.432Z,101272.09
2023-01-06T07:53:35.128Z,101267.75
2023-01-06T07:56:04.027Z,101270.31
2023-01-06T07:58:31.536Z,101263.56
2023-01-06T08:01:05.292Z,101271.19
2023-01-06T08:03:32.695Z,101267.63
2023-01-06T08:05:59.789Z,101262.31
2023-01-06T08:08:26.872Z,101263.00
2023-01-06T08:10:58.144Z,101251.78
2023-01-06T08:13:25.248Z,101250.75
2023-01-06T08:15:52.622Z,101246.25
2023-01-06T08:18:20.229Z,101243.44
2023-01-06T08:20:47.374Z,101231.41
2023-01-06T08:23:14.431Z,101230.63
2023-01-06T08:25:41.774Z,101233.63
2023-01-06T08:28:08.817Z,101232.88
2023-01-06T08:30:40.041Z,101228.19
2023-01-06T08:33:07.569Z,101236.84
2023-01-06T08:35:34.691Z,101238.34
2023-01-06T08:38:01.764Z,101238.34
2023-01-06T08:40:29.112Z,101248.84
2023-01-06T08:42:56.170Z,101243.09
2023-01-06T08:45:23.828Z,101248.81
2023-01-06T08:47:51.191Z,101255.13
2023-01-06T08:50:18.264Z,101252.53
2023-01-06T08:52:45.380Z,101263.19
2023-01-06T08:55:12.841Z,101268.03
2023-01-06T08:57:39.990Z,101276.44
2023-01-06T09:00:08.351Z,101276.84
2023-01-06T09:02:35.770Z,101276.72
2023-01-06T09:05:03.329Z,101293.12
2023-01-06T09:07:30.771Z,101300.03
2023-01-06T09:09:58.225Z,101294.72
2023-01-06T09:12:25.382Z,101289.19
2023-01-06T09:14:52.615Z,101288.84
2023-01-06T09:17:20.104Z,101292.16
2023-01-06T09:19:47.291Z,101301.97
2023-01-06T09:22:14.472Z,101300.22
2023-01-06T09:24:41.922Z,101298.03
2023-01-06T09:27:09.091Z,101307.72
2023-01-06T09:29:36.264Z,101315.50
2023-01-06T09:32:03.857Z,101304.50
2023-01-06T09:34:31.040Z,101310.53
2023-01-06T09:36:58.330Z,101309.91
2023-01-06T09:39:25.871Z,101314.47
2023-01-06T09:41:56.024Z,101314.31
2023-01-06T09:44:31.163Z,101311.34
2023-01-06T09:46:59.736Z,101311.16
2023-01-06T09:49:48.777Z,101311.13
2023-01-06T09:52:33.457Z,101315.19
2023-01-06T09:55:07.980Z,101310.00
2023-01-06T09:57:39.404Z,101302.22
2023-01-06T10:00:40.255Z,101307.34
2023-01-06T10:03:16.299Z,101299.62
2023-01-06T10:06:04.745Z,101299.72
2023-01-06T10:08:35.178Z,101303.28
2023-01-06T10:11:26.524Z,101298.25
2023-01-06T10:14:25.941Z,101305.41
2023-01-06T10:16:55.747Z,101305.34
2023-01-06T10:19:32.427Z,101293.75
2023-01-06T10:22:03.193Z,101300.69
2023-01-06T10:24:55.298Z,101305.88
2023-01-06T10:27:39.860Z,101304.91
2023-01-06T10:30:30.792Z,101305.53
2023-01-06T10:33:01.047Z,101295.22
2023-01-06T10:35:29.391Z,101298.56
2023-01-06T10:37:58.241Z,101287.69
2023-01-06T10:40:27.658Z,101296.88
2023-01-06T10:43:03.796Z,101292.72
2023-01-06T10:45:41.072Z,101291.72
2023-01-06T10:48:13.701Z,101287.16
2023-01-06T10:50:40.951Z,101291.56
2023-01-06T10:53:11.259Z,101286.31
2023-01-06T10:55:59.122Z,101279.97
2023-01-06T10:58:35.860Z,101280.84
2023-01-06T11:01:16.959Z,101283.25
2023-01-06T11:03:45.780Z,101288.09
2023-01-06T11:06:16.427Z,101291.53
2023-01-06T11:08:43.595Z,101284.50
2023-01-06T11:11:28.003Z,101282.81
2023-01-06T11:13:57.952Z,101276.47
2023-01-06T11:16:28.486Z,101277.56
2023-01-06T11:18:58.745Z,101267.06
2023-01-06T11:21:44.363Z,101269.34
2023-01-06T11:24:18.127Z,101264.69
2023-01-06T11:26:53.305Z,101260.66
2023-01-06T11:29:36.840Z,101263.00
2023-01-06T11:32:19.861Z,101251.47
2023-01-06T11:34:57.799Z,101257.56
2023-01-06T11:37:36.364Z,101261.69
2023-01-06T11:40:11.643Z,101256.50
2023-01-06T11:45:42.172Z,101244.09
2023-01-06T11:49:00.595Z,101237.19
2023-01-06T11:51:51.981Z,101247.09
2023-01-06T11:54:39.777Z,101242.59
2023-01-06T11:57:16.180Z,101245.94
2023-01-06T12:00:11.424Z,101243.47
2023-01-06T12:02:48.756Z,101246.84
2023-01-06T12:05:36.926Z,101238.22
2023-01-06T12:08:25.512Z,101228.75
2023-01-06T12:11:03.142Z,101232.84
2023-01-06T12:13:39.765Z,101223.94
2023-01-06T12:16:23.689Z,101212.59
2023-01-06T12:18:51.420Z,101223.03
2023-01-06T12:21:25.453Z,101214.22
2023-01-06T12:23:52.738Z,101207.00
2023-01-06T12:26:23.921Z,101195.34
2023-01-06T12:28:53.624Z,101196.91
2023-01-06T12:31:30.726Z,101191.72
2023-01-06T12:34:10.872Z,101192.47
2023-01-06T12:36:46.358Z,101193.13
2023-01-06T12:39:20.493Z,101186.25
2023-01-06T12:41:49.242Z,101185.81
2023-01-06T12:44:22.514Z,101181.00
2023-01-06T12:46:59.690Z,101175.94
2023-01-06T12:50:00.398Z,101178.81
2023-01-06T12:52:51.927Z,101177.62
2023-01-06T12:55:26.963Z,101173.97
2023-01-06T12:57:59.755Z,101167.78
2023-01-06T13:00:44.209Z,101169.63
2023-01-06T13:03:20.722Z,101172.06
2023-01-06T13:06:30.465Z,101182.37
2023-01-06T13:09:13.628Z,101181.53
2023-01-06T13:11:46.630Z,101172.06
2023-01-06T13:14:14.026Z,101173.91
2023-01-06T13:17:00.706Z,101173.06
2023-01-06T13:19:49.247Z,101167.50
2023-01-06T13:22:20.848Z,101167.44
2023-01-06T13:24:54.305Z,101166.75
2023-01-06T13:28:16.781Z,101171.03
2023-01-06T13:30:44.248Z,101168.41
2023-01-06T13:33:20.283Z,101163.84
2023-01-06T13:35:56.428Z,101159.50
2023-01-06T13:38:31.438Z,101159.81
2023-01-06T13:41:00.959Z,101170.88
2023-01-06T13:43:32.573Z,101178.28
2023-01-06T13:46:09.622Z,101171.56
2023-01-06T13:48:40.371Z,101179.84
2023-01-06T13:51:10.515Z,101183.75
2023-01-06T13:53:42.688Z,101181.75
2023-01-06T13:56:12.919Z,101179.16
2023-01-06T13:58:39.999Z,101172.91
2023-01-06T14:01:19.258Z,101172.16
2023-01-06T14:03:49.003Z,101172.28
2023-01-06T14:06:22.002Z,101166.50
2023-01-06T14:08:57.812Z,101169.94
2023-01-06T14:11:28.111Z,101170.03
2023-01-06T14:14:00.509Z,101167.34
2023-01-06T14:16:49.060Z,101178.59
2023-01-06T14:19:18.377Z,101181.69
2023-01-06T14:21:51.203Z,101175.13
2023-01-06T14:24:31.433Z,101170.72
2023-01-06T14:27:07.091Z,101171.59
2023-01-06T14:29:43.346Z,101174.44
2023-01-06T14:32:14.442Z,101169.03
2023-01-06T14:34:43.423Z,101166.06
2023-01-06T14:37:15.475Z,101172.69
2023-01-06T14:39:47.819Z,101163.94
2023-01-06T14:42:19.046Z,101169.69
2023-01-06T14:44:53.720Z,101177.13
2023-01-06T14:47:30.600Z,101171.00
2023-01-06T14:50:01.409Z,101173.97
2023-01-06T14:53:02.468Z,101174.16
2023-01-06T14:55:33.353Z,101171.97
2023-01-06T14:58:00.518Z,101176.16
2023-01-06T15:00:31.042Z,101177.28
2023-01-06T15:03:05.340Z,101170.88
2023-01-06T15:05:39.743Z,101169.75
2023-01-06T15:08:16.565Z,101169.97
2023-01-06T15:10:50.668Z,101173.09
2023-01-06T15:13:21.364Z,101163.13
2023-01-06T15:15:54.098Z,101174.62
2023-01-06T15:18:21.630Z,101175.25
2023-01-06T15:20:48.860Z,101176.41
2023-01-06T15:23:17.899Z,101176.59
2023-01-06T15:25:49.231Z,101180.28
2023-01-06T15:28:26.958Z,101173.69
2023-01-06T15:30:54.788Z,101176.59
2023-01-06T15:33:24.892Z,101178.25
2023-01-06T15:35:52.921Z,101174.16
2023-01-06T15:38:31.619Z,101173.53
2023-01-06T15:40:59.302Z,101174.34
2023-01-06T15:43:28.486Z,101175.34
2023-01-06T15:46:15.875Z,101171.38
2023-01-06T15:48:48.950Z,101169.03
2023-01-06T15:51:18.669Z,101174.06
2023-01-06T15:53:47.663Z,101170.94
2023-01-06T15:56:24.169Z,101182.19
2023-01-06T15:58:53.649Z,101175.53
2023-01-06T16:01:22.316Z,101174.88
2023-01-06T16:03:58.324Z,101185.25
2023-01-06T16:06:34.010Z,101186.09
2023-01-06T16:09:27.513Z,101189.91
2023-01-06T16:12:03.571Z,101184.94
2023-01-06T16:14:32.846Z,101188.28
2023-01-06T16:17:09.526Z,101186.59
2023-01-06T16:19:44.549Z,101185.91
2023-01-06T16:22:25.816Z,101181.84
2023-01-06T16:24:53.577Z,101175.72
2023-01-06T16:27:27.193Z,101179.91
2023-01-06T16:30:26.890Z,101178.41
2023-01-06T16:33:00.218Z,101177.62
2023-01-06T16:35:32.503Z,101179.63
2023-01-06T16:37:59.972Z,101181.38
2023-01-06T16:40:28.571Z,101188.28
2023-01-06T16:43:02.096Z,101191.09
2023-01-06T16:45:32.270Z,101192.84
2023-01-06T16:47:59.897Z,101193.06
2023-01-06T16:50:44.517Z,101192.06
2023-01-06T16:53:20.915Z,101184.09
2023-01-06T16:55:56.247Z,101176.50
2023-01-06T16:58:31.319Z,101183.25
2023-01-06T17:01:02.499Z,101183.50
2023-01-06T17:03:31.758Z,101176.84
2023-01-06T17:05:58.867Z,101186.34
2023-01-06T17:08:34.982Z,101189.87
2023-01-06T17:11:11.138Z,101186.44
2023-01-06T17:13:40.669Z,101188.88
2023-01-06T17:16:11.937Z,101177.69
2023-01-06T17:18:52.500Z,101172.50
2023-01-06T17:21:33.843Z,101167.41
2023-01-06T17:24:16.936Z,101174.25
2023-01-06T17:26:52.133Z,101167.19
2023-01-06T17:29:21.040Z,101167.72
2023-01-06T17:31:53.082Z,101166.81
2023-01-06T17:34:31.930Z,101176.94
2023-01-06T17:37:06.949Z,101170.94
2023-01-06T17:39:41.842Z,101179.56
2023-01-06T17:42:12.298Z,101185.53
2023-01-06T17:44:47.176Z,101189.69
2023-01-06T17:47:17.489Z,101187.97
2023-01-06T17:49:48.330Z,101188.53
2023-01-06T17:52:21.911Z,101189.41
2023-01-06T17:55:11.757Z,101193.75
2023-01-06T17:57:41.445Z,101194.75
2023-01-06T18:00:24.683Z,101200.59
2023-01-06T18:02:55.559Z,101198.03
2023-01-06T18:05:25.823Z,101193.84
2023-01-06T18:08:16.769Z,101192.34
2023-01-06T18:10:46.150Z,101203.09
2023-01-06T18:13:18.306Z,101206.75
2023-01-06T18:15:46.826Z,101203.47
2023-01-06T18:18:38.583Z,101214.75
2023-01-06T18:21:25.355Z,101203.66
2023-01-06T18:23:52.831Z,101213.00
2023-01-06T18:26:30.407Z,101215.38
2023-01-06T18:29:01.045Z,101212.63
2023-01-06T18:31:34.212Z,101221.75
2023-01-06T18:34:18.849Z,101218.09
2023-01-06T18:36:48.267Z,101218.88
2023-01-06T18:39:19.942Z,101207.66
2023-01-06T18:41:47.343Z,101207.66
2023-01-06T18:44:19.999Z,101219.81
2023-01-06T18:46:47.544Z,101206.03
2023-01-06T18:49:16.147Z,101197.19
2023-01-06T18:51:43.719Z,101196.91
2023-01-06T18:54:22.941Z,101201.06
2023-01-06T18:56:51.463Z,101203.50
2023-01-06T18:59:21.436Z,101214.50
2023-01-06T19:01:50.397Z,101217.41
2023-01-06T19:04:29.815Z,101218.16
2023-01-06T19:07:11.034Z,101217.16
2023-01-06T19:09:40.927Z,101214.66
2023-01-06T19:12:08.311Z,101217.78
2023-01-06T19:14:43.700Z,101216.56
2023-01-06T19:17:18.911Z,101215.75
2023-01-06T19:19:46.091Z,101215.81
2023-01-06T19:22:19.572Z,101204.78
2023-01-06T19:24:51.449Z,101202.97
2023-01-06T19:27:32.684Z,101203.00
2023-01-06T19:30:28.673Z,101199.34
2023-01-06T19:33:13.303Z,101203.56
2023-01-06T19:35:40.458Z,101205.19
2023-01-06T19:38:30.701Z,101196.37
2023-01-06T19:41:00.538Z,101193.13
2023-01-06T19:43:32.928Z,101194.84
2023-01-06T19:46:29.863Z,101199.19
2023-01-06T19:48:59.409Z,101197.50
2023-01-06T19:51:34.049Z,101192.59
2023-01-06T19:54:10.263Z,101185.38
2023-01-06T19:56:39.658Z,101192.22
2023-01-06T19:59:16.973Z,101194.47
2023-01-06T20:01:45.220Z,101188.34
2023-01-06T20:04:22.217Z,101187.62
2023-01-06T20:06:50.149Z,101177.38
2023-01-06T20:09:17.627Z,101176.66
2023-01-06T20:11:44.794Z,101181.72
2023-01-06T20:14:11.974Z,101177.50
2023-01-06T20:16:39.496Z,101181.72
2023-01-06T20:19:06.672Z,101177.84
2023-01-06T20:21:34.022Z,101177.00
2023-01-06T20:24:01.482Z,101173.59
2023-01-06T20:26:28.681Z,101183.78
2023-01-06T20:28:55.999Z,101179.34
2023-01-06T20:31:23.485Z,101182.84
2023-01-06T20:33:50.680Z,101182.78
2023-01-06T20:36:17.815Z,101188.00
2023-01-06T20:38:46.235Z,101195.69
2023-01-06T20:41:13.759Z,101209.47
2023-01-06T20:43:40.915Z,101188.44
2023-01-06T20:46:08.421Z,101197.06
2023-01-06T20:48:35.631Z,101205.19
2023-01-06T20:51:02.825Z,101197.69
2023-01-06T20:53:30.441Z,101184.88
2023-01-06T20:55:57.616Z,101191.00
2023-01-06T20:58:24.858Z,101198.69
2023-01-06T21:00:52.325Z,101185.91
2023-01-06T21:03:19.573Z,101190.16
2023-01-06T21:05:46.716Z,101182.09
2023-01-06T21:08:14.205Z,101195.09
2023-01-06T21:10:41.402Z,101178.53
2023-01-06T21:13:08.585Z,101188.84
2023-01-06T21:15:36.036Z,101187.09
2023-01-06T21:18:03.272Z,101184.53
2023-01-06T21:20:30.610Z,101189.63
2023-01-06T21:22:58.111Z,101188.69
2023-01-06T21:25:25.763Z,101190.91
2023-01-06T21:27:52.915Z,101189.97
2023-01-06T21:30:20.422Z,101183.16
2023-01-06T21:32:47.563Z,101192.38
2023-01-06T21:35:14.831Z,101181.50
2023-01-06T21:37:42.344Z,101180.28
2023-01-06T21:40:10.037Z,101177.62
2023-01-06T21:42:55.837Z,101178.22
2023-01-06T21:45:23.290Z,101175.66
2023-01-06T21:47:50.980Z,101177.13
2023-01-06T21:50:18.189Z,101182.28
2023-01-06T21:52:46.637Z,101181.91
2023-01-06T21:55:13.911Z,101209.09
2023-01-06T21:57:41.229Z,101205.38
2023-01-06T22:00:12.507Z,101188.59
2023-01-06T22:02:40.144Z,101194.47
2023-01-06T22:05:07.984Z,101199.84
2023-01-06T22:07:37.155Z,101185.28
2023-01-06T22:10:06.094Z,101195.87
2023-01-06T22:12:33.901Z,101188.25
2023-01-06T22:15:01.439Z,101186.75
2023-01-06T22:17:28.682Z,101176.53
2023-01-06T22:19:58.878Z,101175.75
2023-01-06T22:22:26.041Z,101169.78
2023-01-06T22:24:54.416Z,101168.91
2023-01-06T22:27:22.807Z,101174.06
2023-01-06T22:29:50.011Z,101169.94
2023-01-06T22:32:17.456Z,101176.91
2023-01-06T22:34:44.933Z,101174.38
2023-01-06T22:37:12.247Z,101166.63
2023-01-06T22:39:39.392Z,101169.94
2023-01-06T22:42:06.807Z,101172.81
2023-01-06T22:44:33.980Z,101167.66
2023-01-06T22:47:01.104Z,101167.66
2023-01-06T22:49:28.525Z,101159.06
2023-01-06T22:51:55.693Z,101163.38
2023-01-06T22:54:22.843Z,101168.75
2023-01-06T22:56:50.334Z,101165.84
2023-01-06T22:59:17.483Z,101171.88
2023-01-06T23:01:45.546Z,101166.94
2023-01-06T23:04:14.872Z,101160.31
2023-01-06T23:06:42.267Z,101160.50
2023-01-06T23:09:09.421Z,101153.50
2023-01-06T23:11:41.484Z,101158.69
2023-01-06T23:14:10.284Z,101157.19
2023-01-06T23:16:40.006Z,101159.16
2023-01-06T23:19:10.733Z,101149.00
2023-01-06T23:21:39.532Z,101152.53
2023-01-06T23:24:07.699Z,101157.81
2023-01-06T23:26:39.817Z,101156.34
2023-01-06T23:29:07.685Z,101155.78
2023-01-06T23:31:40.430Z,101154.66
2023-01-06T23:34:10.933Z,101154.81
2023-01-06T23:36:39.560Z,101158.31
2023-01-06T23:39:08.319Z,101154.44
2023-01-06T23:41:36.860Z,101155.66
2023-01-06T23:44:04.249Z,101159.19
2023-01-06T23:46:36.313Z,101157.84
2023-01-06T23:49:04.133Z,101158.84
2023-01-06T23:51:32.387Z,101157.94
2023-01-06T23:54:00.764Z,101169.59
2023-01-06T23:56:30.419Z,101173.59
2023-01-06T23:59:00.409Z,101166.94
